createdAt,value
2022-07-29T00:01:46.693Z,23.00
2022-07-29T00:04:19.196Z,23.00
2022-07-29T00:06:46.578Z,23.00
2022-07-29T00:09:15.734Z,23.00
2022-07-29T00:11:47.730Z,23.00
2022-07-29T00:14:14.710Z,23.00
2022-07-29T00:16:44.087Z,22.90
2022-07-29T00:19:13.304Z,22.90
2022-07-29T00:21:40.119Z,22.90
2022-07-29T00:24:09.400Z,22.90
2022-07-29T00:26:36.171Z,22.90
2022-07-29T00:29:33.125Z,22.80
2022-07-29T00:31:54.169Z,22.80
2022-07-29T00:34:39.621Z,22.80
2022-07-29T00:37:08.570Z,22.80
2022-07-29T00:39:37.728Z,22.70
2022-07-29T00:42:05.659Z,22.70
2022-07-29T00:44:37.929Z,22.70
2022-07-29T00:47:08.373Z,22.70
2022-07-29T00:49:37.135Z,22.70
2022-07-29T00:52:12.436Z,22.70
2022-07-29T00:54:44.087Z,22.70
2022-07-29T00:57:12.282Z,22.70
2022-07-29T00:59:41.474Z,22.60
2022-07-29T01:02:09.479Z,22.70
2022-07-29T01:04:37.528Z,22.60
2022-07-29T01:07:13.081Z,22.60
2022-07-29T01:09:50.932Z,22.60
2022-07-29T01:12:25.494Z,22.60
2022-07-29T01:14:55.367Z,22.60
2022-07-29T01:17:27.497Z,22.60
2022-07-29T01:20:10.842Z,22.60
2022-07-29T01:23:08.912Z,22.60
2022-07-29T01:25:38.302Z,22.60
2022-07-29T01:28:42.368Z,22.50
2022-07-29T01:31:13.415Z,22.40
2022-07-29T01:33:54.838Z,22.40
2022-07-29T01:37:02.532Z,22.40
2022-07-29T01:39:40.307Z,22.30
2022-07-29T01:42:17.642Z,22.30
2022-07-29T01:45:09.241Z,22.20
2022-07-29T01:47:53.911Z,22.20
2022-07-29T01:50:24.164Z,22.10
2022-07-29T01:52:56.864Z,22.10
2022-07-29T01:55:31.414Z,22.00
2022-07-29T01:58:01.131Z,22.00
2022-07-29T02:00:29.413Z,21.90
2022-07-29T02:02:57.807Z,21.90
2022-07-29T02:05:28.006Z,21.80
2022-07-29T02:07:56.530Z,21.80
2022-07-29T02:10:30.133Z,21.80
2022-07-29T02:13:01.854Z,21.80
2022-07-29T02:15:33.747Z,21.70
2022-07-29T02:18:08.289Z,21.70
2022-07-29T02:20:35.346Z,21.70
2022-07-29T02:23:04.567Z,21.60
2022-07-29T02:25:37.595Z,21.60
2022-07-29T02:28:10.850Z,21.60
2022-07-29T02:30:45.398Z,21.60
2022-07-29T02:33:16.576Z,21.60
2022-07-29T02:35:49.689Z,21.60
2022-07-29T02:38:40.369Z,21.60
2022-07-29T02:41:12.842Z,21.50
2022-07-29T02:43:43.857Z,21.50
2022-07-29T02:46:28.995Z,21.50
2022-07-29T02:49:20.235Z,21.40
2022-07-29T02:51:53.889Z,21.40
2022-07-29T02:54:43.051Z,21.30
2022-07-29T02:57:55.070Z,21.20
2022-07-29T03:00:30.459Z,21.00
2022-07-29T03:03:00.704Z,20.90
2022-07-29T03:05:28.259Z,20.80
2022-07-29T03:08:06.657Z,20.70
2022-07-29T03:10:38.166Z,20.60
2022-07-29T03:13:06.679Z,20.50
2022-07-29T03:15:36.570Z,20.50
2022-07-29T03:18:08.183Z,20.40
2022-07-29T03:20:35.008Z,20.40
2022-07-29T03:23:03.818Z,20.40
2022-07-29T03:25:30.969Z,20.40
2022-07-29T03:28:01.707Z,20.30
2022-07-29T03:30:32.735Z,20.30
2022-07-29T03:33:02.338Z,20.30
2022-07-29T03:35:35.695Z,20.20
2022-07-29T03:38:02.457Z,20.20
2022-07-29T03:40:45.033Z,20.20
2022-07-29T03:43:15.814Z,20.10
2022-07-29T03:45:45.250Z,20.10
2022-07-29T03:48:17.399Z,20.10
2022-07-29T03:50:46.847Z,20.00
2022-07-29T03:53:14.009Z,20.00
2022-07-29T03:55:47.084Z,20.00
2022-07-29T03:58:17.137Z,20.00
2022-07-29T04:00:44.931Z,20.00
2022-07-29T04:03:11.987Z,20.10
2022-07-29T04:05:38.869Z,20.10
2022-07-29T04:08:08.194Z,20.10
2022-07-29T04:10:48.739Z,20.10
2022-07-29T04:13:15.418Z,20.10
2022-07-29T04:15:45.044Z,20.10
2022-07-29T04:18:11.785Z,20.10
2022-07-29T04:20:43.275Z,20.10
2022-07-29T04:23:09.999Z,20.10
2022-07-29T04:25:50.258Z,20.10
2022-07-29T04:28:17.040Z,20.10
2022-07-29T04:30:44.064Z,20.10
2022-07-29T04:33:13.187Z,20.10
2022-07-29T04:35:47.055Z,20.20
2022-07-29T04:38:17.405Z,20.10
2022-07-29T04:40:47.057Z,20.20
2022-07-29T04:43:16.386Z,20.20
2022-07-29T04:45:43.102Z,20.20
2022-07-29T04:48:09.964Z,20.20
2022-07-29T04:50:39.741Z,20.20
2022-07-29T04:53:06.983Z,20.20
2022-07-29T04:55:34.267Z,20.20
2022-07-29T04:58:01.127Z,20.20
2022-07-29T05:00:33.263Z,20.10
2022-07-29T05:03:00.647Z,20.10
2022-07-29T05:05:27.410Z,20.10
2022-07-29T05:07:54.151Z,20.10
2022-07-29T05:10:20.883Z,20.00
2022-07-29T05:12:48.033Z,20.10
2022-07-29T05:15:14.748Z,20.00
2022-07-29T05:17:41.490Z,20.10
2022-07-29T05:20:08.720Z,20.00
2022-07-29T05:22:35.457Z,20.10
2022-07-29T05:25:08.560Z,20.00
2022-07-29T05:27:36.821Z,20.00
2022-07-29T05:30:03.969Z,20.10
2022-07-29T05:32:30.621Z,20.10
2022-07-29T05:34:57.326Z,20.10
2022-07-29T05:37:23.991Z,20.20
2022-07-29T05:39:56.572Z,20.20
2022-07-29T05:42:25.075Z,20.20
2022-07-29T05:44:52.027Z,20.30
2022-07-29T05:47:19.053Z,20.30
2022-07-29T05:49:46.246Z,20.40
2022-07-29T05:52:14.139Z,20.40
2022-07-29T05:54:41.365Z,20.40
2022-07-29T05:57:08.123Z,20.40
2022-07-29T05:59:38.321Z,20.40
2022-07-29T06:02:06.041Z,20.50
2022-07-29T06:04:33.457Z,20.50
2022-07-29T06:07:00.190Z,20.50
2022-07-29T06:09:26.975Z,20.50
2022-07-29T06:11:53.763Z,20.60
2022-07-29T06:14:20.735Z,20.60
2022-07-29T06:16:47.599Z,20.60
2022-07-29T06:19:14.318Z,20.60
2022-07-29T06:21:47.405Z,20.70
2022-07-29T06:24:15.375Z,20.60
2022-07-29T06:26:43.451Z,20.70
2022-07-29T06:29:11.603Z,20.70
2022-07-29T06:31:38.820Z,20.70
2022-07-29T06:34:05.966Z,20.70
2022-07-29T06:36:35.974Z,20.70
2022-07-29T06:39:08.723Z,20.70
2022-07-29T06:41:36.392Z,20.80
2022-07-29T06:44:10.035Z,20.80
2022-07-29T06:46:37.424Z,20.80
2022-07-29T06:49:04.960Z,20.80
2022-07-29T06:51:31.744Z,20.90
2022-07-29T06:54:02.447Z,20.90
2022-07-29T06:56:31.606Z,20.90
2022-07-29T06:58:58.546Z,20.90
2022-07-29T07:01:25.298Z,21.00
2022-07-29T07:03:52.086Z,21.00
2022-07-29T07:06:18.914Z,21.00
2022-07-29T07:08:45.651Z,21.00
2022-07-29T07:11:13.176Z,21.00
2022-07-29T07:13:39.959Z,21.00
2022-07-29T07:16:06.806Z,21.00
2022-07-29T07:18:33.586Z,21.00
2022-07-29T07:21:00.462Z,21.00
2022-07-29T07:23:27.200Z,21.10
2022-07-29T07:25:54.174Z,21.10
2022-07-29T07:28:24.475Z,21.20
2022-07-29T07:30:52.588Z,21.20
2022-07-29T07:33:19.573Z,21.20
2022-07-29T07:35:46.574Z,21.30
2022-07-29T07:38:13.740Z,21.40
2022-07-29T07:40:41.579Z,21.40
2022-07-29T07:43:08.347Z,21.50
2022-07-29T07:45:35.228Z,21.60
2022-07-29T07:48:07.294Z,21.70
2022-07-29T07:50:33.945Z,21.80
2022-07-29T07:53:02.903Z,21.90
2022-07-29T07:55:47.283Z,22.00
2022-07-29T07:58:16.386Z,22.00
2022-07-29T08:00:43.213Z,22.10
2022-07-29T08:03:16.987Z,22.20
2022-07-29T08:05:44.125Z,22.20
2022-07-29T08:08:10.833Z,22.30
2022-07-29T08:10:56.394Z,22.40
2022-07-29T08:13:33.125Z,22.40
2022-07-29T08:16:11.719Z,22.50
2022-07-29T08:18:40.031Z,22.60
2022-07-29T08:21:06.971Z,22.70
2022-07-29T08:23:46.880Z,22.70
2022-07-29T08:26:15.919Z,22.70
2022-07-29T08:28:46.550Z,22.70
2022-07-29T08:31:13.995Z,22.70
2022-07-29T08:33:40.725Z,22.60
2022-07-29T08:36:07.877Z,22.60
2022-07-29T08:38:34.859Z,22.50
2022-07-29T08:41:02.790Z,22.50
2022-07-29T08:43:30.169Z,22.50
2022-07-29T08:45:56.908Z,22.50
2022-07-29T08:48:25.558Z,22.50
2022-07-29T08:50:56.926Z,22.50
2022-07-29T08:53:27.275Z,22.50
2022-07-29T08:55:54.576Z,22.50
2022-07-29T08:58:23.065Z,22.50
2022-07-29T09:00:55.560Z,22.50
2022-07-29T09:03:25.647Z,22.60
2022-07-29T09:05:57.290Z,22.60
2022-07-29T09:08:24.682Z,22.70
2022-07-29T09:10:52.139Z,22.70
2022-07-29T09:13:18.885Z,22.70
2022-07-29T09:15:45.861Z,22.80
2022-07-29T09:18:19.573Z,22.80
2022-07-29T09:21:15.808Z,22.90
2022-07-29T09:24:02.470Z,23.00
2022-07-29T09:26:30.701Z,23.10
2022-07-29T09:28:58.620Z,23.20
2022-07-29T09:31:36.925Z,23.30
2022-07-29T09:34:04.422Z,23.40
2022-07-29T09:36:31.236Z,23.50
2022-07-29T09:39:01.861Z,23.50
2022-07-29T09:41:29.541Z,23.70
2022-07-29T09:44:00.496Z,23.80
2022-07-29T09:46:27.317Z,23.80
2022-07-29T09:49:11.859Z,23.90
2022-07-29T09:51:39.217Z,24.00
2022-07-29T09:54:24.815Z,24.10
2022-07-29T09:56:51.563Z,24.20
2022-07-29T09:59:18.289Z,24.20
2022-07-29T10:01:47.539Z,24.20
2022-07-29T10:04:14.269Z,24.20
2022-07-29T10:07:03.774Z,24.20
2022-07-29T10:09:31.784Z,24.20
2022-07-29T10:12:12.020Z,24.20
2022-07-29T10:14:39.737Z,24.30
2022-07-29T10:17:08.051Z,24.30
2022-07-29T10:19:35.641Z,24.30
2022-07-29T10:22:05.584Z,24.40
2022-07-29T10:24:33.144Z,24.40
2022-07-29T10:27:02.962Z,24.50
2022-07-29T10:29:32.207Z,24.50
2022-07-29T10:32:05.044Z,24.50
2022-07-29T10:34:50.252Z,24.60
2022-07-29T10:37:47.910Z,24.60
2022-07-29T10:40:51.827Z,24.70
2022-07-29T10:43:29.784Z,24.80
2022-07-29T10:45:59.209Z,24.90
2022-07-29T10:48:26.314Z,24.90
2022-07-29T10:50:56.181Z,25.00
2022-07-29T10:53:24.592Z,25.10
2022-07-29T10:55:53.201Z,25.10
2022-07-29T10:58:21.324Z,25.10
2022-07-29T11:00:51.094Z,25.10
2022-07-29T11:03:53.722Z,25.10
2022-07-29T11:06:28.123Z,25.20
2022-07-29T11:09:18.246Z,25.20
2022-07-29T11:11:51.367Z,25.20
2022-07-29T11:14:19.799Z,25.20
2022-07-29T11:17:00.629Z,25.20
2022-07-29T11:19:30.891Z,25.20
2022-07-29T11:21:58.765Z,25.20
2022-07-29T11:24:33.080Z,25.20
2022-07-29T11:27:20.593Z,25.10
2022-07-29T11:30:03.446Z,25.20
2022-07-29T11:32:40.367Z,25.20
2022-07-29T11:35:37.954Z,25.30
2022-07-29T11:38:28.379Z,25.40
2022-07-29T11:41:22.457Z,25.50
2022-07-29T11:43:54.816Z,25.60
2022-07-29T11:46:48.159Z,25.70
2022-07-29T11:52:11.719Z,25.90
2022-07-29T11:54:58.089Z,26.00
2022-07-29T11:57:36.321Z,26.10
2022-07-29T12:00:12.057Z,26.20
2022-07-29T12:02:43.040Z,26.30
2022-07-29T12:05:11.898Z,26.40
2022-07-29T12:07:03.750Z,25.80
2022-07-29T12:07:41.199Z,26.50
2022-07-29T12:10:19.868Z,26.60
2022-07-29T12:12:53.749Z,26.70
2022-07-29T12:15:22.265Z,26.80
2022-07-29T12:17:49.205Z,26.90
2022-07-29T12:20:24.807Z,27.00
2022-07-29T12:22:54.450Z,27.10
2022-07-29T12:25:38.520Z,27.10
2022-07-29T12:28:07.339Z,27.20
2022-07-29T12:30:42.975Z,27.30
2022-07-29T12:33:13.166Z,27.50
2022-07-29T12:35:40.594Z,27.60
2022-07-29T12:38:07.541Z,27.80
2022-07-29T12:40:34.796Z,27.90
2022-07-29T12:43:20.105Z,28.00
2022-07-29T12:45:50.818Z,28.10
2022-07-29T12:48:19.119Z,28.20
2022-07-29T12:51:09.745Z,28.30
2022-07-29T12:53:37.624Z,28.50
2022-07-29T12:56:15.561Z,28.50
2022-07-29T12:58:52.628Z,28.50
2022-07-29T13:01:20.900Z,28.50
2022-07-29T13:03:56.976Z,28.50
2022-07-29T13:06:34.602Z,28.50
2022-07-29T13:09:03.524Z,28.50
2022-07-29T13:11:33.316Z,28.50
2022-07-29T13:14:06.906Z,28.60
2022-07-29T13:16:34.278Z,28.70
2022-07-29T13:19:05.999Z,28.70
2022-07-29T13:21:33.085Z,28.80
2022-07-29T13:23:59.782Z,29.00
2022-07-29T13:26:26.583Z,29.00
2022-07-29T13:28:55.377Z,29.10
2022-07-29T13:31:23.022Z,29.20
2022-07-29T13:33:49.829Z,29.40
2022-07-29T13:36:16.564Z,29.60
2022-07-29T13:38:43.247Z,29.80
2022-07-29T13:41:10.145Z,30.30
2022-07-29T13:43:37.409Z,30.80
2022-07-29T13:46:04.183Z,31.60
2022-07-29T13:48:30.913Z,32.50
2022-07-29T13:50:57.790Z,33.60
2022-07-29T13:53:26.829Z,34.60
2022-07-29T13:55:54.706Z,35.60
2022-07-29T13:58:21.446Z,36.60
2022-07-29T14:00:50.600Z,37.50
2022-07-29T14:03:17.645Z,38.40
2022-07-29T14:05:44.854Z,39.30
2022-07-29T14:08:11.687Z,40.20
2022-07-29T14:10:38.351Z,41.10
2022-07-29T14:13:05.152Z,41.70
2022-07-29T14:15:31.876Z,42.30
2022-07-29T14:17:58.583Z,42.90
2022-07-29T14:20:25.372Z,43.40
2022-07-29T14:22:52.058Z,43.80
2022-07-29T14:25:21.219Z,44.30
2022-07-29T14:27:50.286Z,44.60
2022-07-29T14:30:16.955Z,44.90
2022-07-29T14:32:43.860Z,45.20
2022-07-29T14:35:10.643Z,45.40
2022-07-29T14:37:39.976Z,45.60
2022-07-29T14:40:08.344Z,45.70
2022-07-29T14:42:35.246Z,45.60
2022-07-29T14:45:01.967Z,45.10
2022-07-29T14:47:28.690Z,44.80
2022-07-29T14:49:55.544Z,44.70
2022-07-29T14:52:22.204Z,44.60
2022-07-29T14:54:49.057Z,44.40
2022-07-29T14:57:15.844Z,43.90
2022-07-29T14:59:42.555Z,43.20
2022-07-29T15:02:09.588Z,42.50
2022-07-29T15:04:36.380Z,41.80
2022-07-29T15:07:03.249Z,41.40
2022-07-29T15:09:29.981Z,41.30
2022-07-29T15:11:57.163Z,41.30
2022-07-29T15:14:24.141Z,41.40
2022-07-29T15:16:52.905Z,41.40
2022-07-29T15:19:19.930Z,41.40
2022-07-29T15:21:48.736Z,41.50
2022-07-29T15:24:17.497Z,41.50
2022-07-29T15:26:44.420Z,41.40
2022-07-29T15:29:11.171Z,41.20
2022-07-29T15:31:38.027Z,40.90
2022-07-29T15:34:06.321Z,40.50
2022-07-29T15:36:51.582Z,40.00
2022-07-29T15:39:19.609Z,39.80
2022-07-29T15:41:46.905Z,39.70
2022-07-29T15:44:13.718Z,39.70
2022-07-29T15:46:59.587Z,39.70
2022-07-29T15:49:48.470Z,39.80
2022-07-29T15:52:24.830Z,39.80
2022-07-29T15:54:53.638Z,40.00
2022-07-29T15:57:20.749Z,40.20
2022-07-29T15:59:47.429Z,40.50
2022-07-29T16:02:14.129Z,40.80
2022-07-29T16:04:41.055Z,41.10
2022-07-29T16:07:07.785Z,41.40
2022-07-29T16:09:34.688Z,41.60
2022-07-29T16:12:01.407Z,41.90
2022-07-29T16:14:28.875Z,42.20
2022-07-29T16:16:56.658Z,42.30
2022-07-29T16:19:23.593Z,42.20
2022-07-29T16:21:50.303Z,41.80
2022-07-29T16:24:16.989Z,41.20
2022-07-29T16:26:43.706Z,40.60
2022-07-29T16:29:12.522Z,40.00
2022-07-29T16:31:39.308Z,39.30
2022-07-29T16:34:06.051Z,38.60
2022-07-29T16:36:32.721Z,38.10
2022-07-29T16:39:00.810Z,37.50
2022-07-29T16:41:29.516Z,37.00
2022-07-29T16:43:56.689Z,36.60
2022-07-29T16:46:24.317Z,36.50
2022-07-29T16:48:53.737Z,36.60
2022-07-29T16:51:22.863Z,36.80
2022-07-29T16:53:52.129Z,37.20
2022-07-29T16:56:20.075Z,37.60
2022-07-29T16:58:48.966Z,38.00
2022-07-29T17:01:17.029Z,38.40
2022-07-29T17:04:05.390Z,38.80
2022-07-29T17:06:39.756Z,39.00
2022-07-29T17:09:16.607Z,39.50
2022-07-29T17:11:54.049Z,39.60
2022-07-29T17:14:41.896Z,39.80
2022-07-29T17:17:13.606Z,39.90
2022-07-29T17:19:40.884Z,39.90
2022-07-29T17:22:17.137Z,40.00
2022-07-29T17:24:46.980Z,40.10
2022-07-29T17:27:17.348Z,40.10
2022-07-29T17:29:45.738Z,40.20
2022-07-29T17:32:12.778Z,40.30
2022-07-29T17:34:41.229Z,40.30
2022-07-29T17:37:12.767Z,40.30
2022-07-29T17:39:42.594Z,40.40
2022-07-29T17:42:16.381Z,40.40
2022-07-29T17:44:43.483Z,40.20
2022-07-29T17:47:16.186Z,39.90
2022-07-29T17:49:44.532Z,39.50
2022-07-29T17:52:11.391Z,39.00
2022-07-29T17:54:42.916Z,38.60
2022-07-29T17:57:18.938Z,38.30
2022-07-29T17:59:52.701Z,38.20
2022-07-29T18:02:19.495Z,38.10
2022-07-29T18:04:50.792Z,38.10
2022-07-29T18:07:21.349Z,38.10
2022-07-29T18:09:48.048Z,38.20
2022-07-29T18:12:16.838Z,38.20
2022-07-29T18:14:45.549Z,38.20
2022-07-29T18:17:17.657Z,38.20
2022-07-29T18:19:44.310Z,38.10
2022-07-29T18:22:14.979Z,38.00
2022-07-29T18:24:42.193Z,37.80
2022-07-29T18:27:08.917Z,37.40
2022-07-29T18:29:38.193Z,37.10
2022-07-29T18:32:09.988Z,36.70
2022-07-29T18:34:36.655Z,36.20
2022-07-29T18:37:08.102Z,35.70
2022-07-29T18:39:39.730Z,35.30
2022-07-29T18:42:06.778Z,34.90
2022-07-29T18:44:43.537Z,34.50
2022-07-29T18:47:15.629Z,34.20
2022-07-29T18:49:48.878Z,33.90
2022-07-29T18:52:18.063Z,33.50
2022-07-29T18:54:45.170Z,33.20
2022-07-29T18:57:56.383Z,32.90
2022-07-29T19:00:04.394Z,32.60
2022-07-29T19:02:31.222Z,32.30
2022-07-29T19:04:58.045Z,32.10
2022-07-29T19:10:12.670Z,31.60
2022-07-29T19:12:39.431Z,31.30
2022-07-29T19:15:07.494Z,31.10
2022-07-29T19:17:34.163Z,30.90
2022-07-29T19:20:00.855Z,30.60
2022-07-29T19:22:34.652Z,30.50
2022-07-29T19:25:01.681Z,30.30
2022-07-29T19:27:30.881Z,30.10
2022-07-29T19:29:59.395Z,29.90
2022-07-29T19:32:28.736Z,29.70
2022-07-29T19:35:14.050Z,29.60
2022-07-29T19:37:40.716Z,29.40
2022-07-29T19:40:07.836Z,29.20
2022-07-29T19:42:34.479Z,29.00
2022-07-29T19:45:02.673Z,28.80
2022-07-29T19:47:30.513Z,28.70
2022-07-29T19:49:57.433Z,28.50
2022-07-29T19:52:24.085Z,28.30
2022-07-29T19:54:53.490Z,28.10
2022-07-29T19:57:24.784Z,27.90
2022-07-29T19:59:58.966Z,27.80
2022-07-29T20:02:25.779Z,27.60
2022-07-29T20:04:55.408Z,27.40
2022-07-29T20:07:24.553Z,27.30
2022-07-29T20:09:55.221Z,27.20
2022-07-29T20:12:24.265Z,27.00
2022-07-29T20:14:51.231Z,26.90
2022-07-29T20:17:22.259Z,26.80
2022-07-29T20:19:49.721Z,26.60
2022-07-29T20:22:21.091Z,26.50
2022-07-29T20:24:48.665Z,26.40
2022-07-29T20:27:15.561Z,26.30
2022-07-29T20:29:44.250Z,26.10
2022-07-29T20:32:12.356Z,26.10
2022-07-29T20:34:41.475Z,26.00
2022-07-29T20:37:13.223Z,25.90
2022-07-29T20:39:47.746Z,25.90
2022-07-29T20:42:24.069Z,25.80
2022-07-29T20:44:56.377Z,25.80
2022-07-29T20:47:25.519Z,25.70
2022-07-29T20:49:58.164Z,25.70
2022-07-29T20:52:24.956Z,25.70
2022-07-29T20:54:51.915Z,25.60
2022-07-29T20:57:38.967Z,25.50
2022-07-29T21:00:07.754Z,25.40
2022-07-29T21:02:37.293Z,25.30
2022-07-29T21:05:08.564Z,25.20
2022-07-29T21:07:38.041Z,25.20
2022-07-29T21:10:05.190Z,25.10
2022-07-29T21:12:33.334Z,25.00
2022-07-29T21:15:07.452Z,24.90
2022-07-29T21:17:38.860Z,24.90
2022-07-29T21:20:08.429Z,24.80
2022-07-29T21:22:36.301Z,24.70
2022-07-29T21:25:03.488Z,24.70
2022-07-29T21:27:51.903Z,24.60
2022-07-29T21:30:21.052Z,24.70
2022-07-29T21:32:47.817Z,24.50
2022-07-29T21:35:30.289Z,24.50
2022-07-29T21:38:04.514Z,24.40
2022-07-29T21:40:33.594Z,24.40
2022-07-29T21:43:02.677Z,24.40
2022-07-29T21:45:31.515Z,24.30
2022-07-29T21:47:58.136Z,24.20
2022-07-29T21:50:25.006Z,24.20
2022-07-29T21:52:51.733Z,24.20
2022-07-29T21:55:21.329Z,24.20
2022-07-29T21:57:50.971Z,24.00
2022-07-29T22:00:18.177Z,23.90
2022-07-29T22:02:45.219Z,23.80
2022-07-29T22:05:12.926Z,23.70
2022-07-29T22:07:55.658Z,23.70
2022-07-29T22:10:27.670Z,23.60
2022-07-29T22:12:56.362Z,23.60
2022-07-29T22:15:26.179Z,23.50
2022-07-29T22:17:53.081Z,23.50
2022-07-29T22:20:20.629Z,23.40
2022-07-29T22:22:48.101Z,23.30
2022-07-29T22:25:14.949Z,23.20
2022-07-29T22:27:42.206Z,23.20
2022-07-29T22:30:09.387Z,23.10
2022-07-29T22:32:36.283Z,23.10
2022-07-29T22:35:06.552Z,23.00
2022-07-29T22:37:33.311Z,22.90
2022-07-29T22:40:01.206Z,22.90
2022-07-29T22:42:32.929Z,22.80
2022-07-29T22:45:03.159Z,22.80
2022-07-29T22:47:46.162Z,22.80
2022-07-29T22:50:21.404Z,22.70
2022-07-29T22:52:48.085Z,22.70
2022-07-29T22:55:16.829Z,22.60
2022-07-29T22:57:50.501Z,22.50
2022-07-29T23:00:19.596Z,22.50
2022-07-29T23:02:47.617Z,22.50
2022-07-29T23:05:15.610Z,22.40
2022-07-29T23:07:44.370Z,22.30
2022-07-29T23:10:11.046Z,22.30
2022-07-29T23:12:39.022Z,22.30
2022-07-29T23:15:06.234Z,22.20
2022-07-29T23:17:36.665Z,22.20
2022-07-29T23:20:06.573Z,22.20
2022-07-29T23:22:33.821Z,22.10
2022-07-29T23:25:08.212Z,22.00
2022-07-29T23:27:39.889Z,22.00
2022-07-29T23:30:07.003Z,22.00
2022-07-29T23:32:36.209Z,21.90
2022-07-29T23:35:05.486Z,21.90
2022-07-29T23:37:35.002Z,21.90
2022-07-29T23:40:04.853Z,21.90
2022-07-29T23:42:31.573Z,21.80
2022-07-29T23:45:03.382Z,21.80
2022-07-29T23:47:35.750Z,21.80
2022-07-29T23:50:03.133Z,21.70
2022-07-29T23:52:29.814Z,21.80
2022-07-29T23:55:37.407Z,21.70
2022-07-29T23:57:46.880Z,21.70
